createdAt,value
2022-10-30T00:02:21.654Z,5.20
2022-10-30T00:05:10.776Z,5.40
2022-10-30T00:07:59.908Z,5.50
2022-10-30T00:10:50.181Z,5.70
2022-10-30T00:13:39.928Z,5.70
2022-10-30T00:16:27.597Z,5.88
2022-10-30T00:19:15.036Z,5.60
2022-10-30T00:24:49.842Z,6.05
2022-10-30T00:27:37.443Z,7.03
2022-10-30T00:30:26.344Z,5.10
2022-10-30T00:33:13.980Z,5.70
2022-10-30T00:36:01.924Z,6.00
2022-10-30T00:38:49.921Z,6.22
2022-10-30T00:41:39.626Z,5.40
2022-10-30T00:44:42.941Z,5.72
2022-10-30T00:47:39.171Z,5.60
2022-10-30T00:50:31.357Z,5.30
2022-10-30T00:53:22.226Z,5.80
2022-10-30T00:56:13.905Z,6.38
2022-10-30T00:59:06.449Z,5.53
2022-10-30T01:01:56.567Z,5.20
2022-10-30T01:04:48.043Z,4.72
2022-10-30T01:07:35.469Z,5.68
2022-10-30T01:10:23.989Z,5.13
2022-10-30T01:13:12.576Z,6.00
2022-10-30T01:16:20.852Z,5.38
2022-10-30T01:19:23.926Z,5.13
2022-10-30T01:22:36.337Z,5.50
2022-10-30T01:25:50.162Z,5.60
2022-10-30T01:29:02.628Z,5.80
2022-10-30T01:32:06.781Z,6.57
2022-10-30T01:35:03.870Z,6.25
2022-10-30T01:38:04.756Z,5.80
2022-10-30T01:40:52.262Z,6.20
2022-10-30T01:43:42.416Z,5.40
2022-10-30T01:46:49.524Z,6.22
2022-10-30T01:50:10.979Z,4.88
2022-10-30T01:53:13.062Z,5.40
2022-10-30T01:56:19.811Z,5.20
2022-10-30T01:59:16.534Z,5.85
2022-10-30T02:02:05.880Z,5.80
2022-10-30T02:04:54.324Z,6.45
2022-10-30T02:07:42.052Z,6.00
2022-10-30T02:10:32.699Z,5.80
2022-10-30T02:13:21.435Z,5.53
2022-10-30T02:16:10.281Z,5.93
2022-10-30T02:18:58.078Z,6.47
2022-10-30T02:21:47.024Z,7.18
2022-10-30T02:24:35.401Z,5.90
2022-10-30T02:27:40.398Z,6.55
2022-10-30T02:30:28.575Z,6.13
2022-10-30T02:36:03.601Z,7.78
2022-10-30T02:38:52.613Z,7.18
2022-10-30T02:41:40.580Z,7.50
2022-10-30T02:44:28.340Z,7.75
2022-10-30T02:47:16.212Z,8.45
2022-10-30T02:50:04.075Z,8.40
2022-10-30T02:52:51.553Z,8.48
2022-10-30T02:55:40.542Z,8.80
2022-10-30T02:58:27.918Z,9.15
2022-10-30T03:01:18.150Z,9.20
2022-10-30T03:04:06.492Z,9.63
2022-10-30T03:06:53.867Z,9.32
2022-10-30T03:09:41.650Z,9.50
2022-10-30T03:12:30.804Z,7.88
2022-10-30T03:15:18.618Z,8.68
2022-10-30T03:18:06.678Z,8.45
2022-10-30T03:20:59.036Z,6.50
2022-10-30T03:23:47.344Z,7.93
2022-10-30T03:26:34.883Z,7.82
2022-10-30T03:29:23.689Z,8.15
2022-10-30T03:32:11.880Z,7.25
2022-10-30T03:35:00.478Z,6.43
2022-10-30T03:37:47.964Z,6.30
2022-10-30T03:40:35.366Z,5.53
2022-10-30T03:43:23.862Z,5.80
2022-10-30T03:46:12.748Z,4.90
2022-10-30T03:49:00.482Z,5.15
2022-10-30T03:51:48.141Z,5.03
2022-10-30T03:54:35.714Z,4.95
2022-10-30T03:57:23.251Z,4.65
2022-10-30T04:00:12.946Z,5.00
2022-10-30T04:03:02.649Z,4.60
2022-10-30T04:05:51.724Z,4.53
2022-10-30T04:08:39.340Z,4.40
2022-10-30T04:11:27.076Z,4.53
2022-10-30T04:14:14.810Z,4.38
2022-10-30T04:17:02.301Z,4.35
2022-10-30T04:19:51.301Z,4.85
2022-10-30T04:22:38.923Z,4.53
2022-10-30T04:25:27.351Z,4.55
2022-10-30T04:28:15.649Z,4.57
2022-10-30T04:31:03.597Z,4.85
2022-10-30T04:33:51.287Z,5.60
2022-10-30T04:36:40.061Z,4.18
2022-10-30T04:39:27.790Z,5.57
2022-10-30T04:42:15.242Z,4.60
2022-10-30T04:45:05.101Z,4.13
2022-10-30T04:47:52.919Z,4.97
2022-10-30T04:50:41.108Z,4.70
2022-10-30T04:53:29.990Z,5.13
2022-10-30T04:56:17.511Z,4.43
2022-10-30T04:59:05.174Z,5.35
2022-10-30T05:01:53.091Z,5.15
2022-10-30T05:04:41.659Z,4.80
2022-10-30T05:07:29.632Z,4.57
2022-10-30T05:10:21.742Z,4.68
2022-10-30T05:13:12.479Z,4.90
2022-10-30T05:16:00.152Z,4.50
2022-10-30T05:18:47.563Z,5.82
2022-10-30T05:21:35.096Z,4.40
2022-10-30T05:24:22.640Z,4.40
2022-10-30T05:27:11.625Z,4.95
2022-10-30T05:30:03.281Z,4.35
2022-10-30T05:32:50.608Z,5.03
2022-10-30T05:35:39.345Z,4.82
2022-10-30T05:38:27.430Z,3.95
2022-10-30T05:41:14.910Z,4.78
2022-10-30T05:44:03.685Z,4.93
2022-10-30T05:46:51.413Z,4.78
2022-10-30T05:49:39.100Z,5.78
2022-10-30T05:52:26.923Z,4.03
2022-10-30T05:55:14.676Z,4.50
2022-10-30T05:58:05.450Z,4.45
2022-10-30T06:00:54.737Z,4.43
2022-10-30T06:03:43.526Z,4.68
2022-10-30T06:06:31.407Z,4.40
2022-10-30T06:09:18.953Z,5.03
2022-10-30T06:12:07.156Z,4.80
2022-10-30T06:15:19.393Z,4.65
2022-10-30T06:18:10.090Z,4.45
2022-10-30T06:21:02.033Z,4.50
2022-10-30T06:23:50.550Z,4.75
2022-10-30T06:26:38.594Z,4.40
2022-10-30T06:29:30.924Z,4.45
2022-10-30T06:32:25.907Z,5.13
2022-10-30T06:35:14.484Z,4.45
2022-10-30T06:38:16.306Z,4.80
2022-10-30T06:41:04.284Z,5.05
2022-10-30T06:43:52.761Z,4.72
2022-10-30T06:46:40.896Z,4.68
2022-10-30T06:49:31.838Z,4.72
2022-10-30T06:52:23.112Z,4.78
2022-10-30T06:55:12.915Z,4.65
2022-10-30T06:58:01.612Z,5.43
2022-10-30T07:00:54.255Z,5.38
2022-10-30T07:03:42.445Z,4.50
2022-10-30T07:06:32.401Z,5.20
2022-10-30T07:09:20.482Z,5.60
2022-10-30T07:12:10.017Z,5.00
2022-10-30T07:14:58.392Z,5.20
2022-10-30T07:17:55.689Z,5.20
2022-10-30T07:20:45.018Z,4.95
2022-10-30T07:23:38.188Z,5.10
2022-10-30T07:26:26.308Z,6.50
2022-10-30T07:29:14.738Z,6.35
2022-10-30T07:32:04.683Z,6.28
2022-10-30T07:34:56.818Z,6.43
2022-10-30T07:37:45.203Z,6.80
2022-10-30T07:40:35.852Z,6.38
2022-10-30T07:43:25.628Z,6.15
2022-10-30T07:46:20.307Z,6.60
2022-10-30T07:49:09.796Z,5.72
2022-10-30T07:52:00.904Z,6.85
2022-10-30T07:54:51.861Z,5.57
2022-10-30T07:57:45.172Z,6.15
2022-10-30T08:00:33.240Z,6.10
2022-10-30T08:03:24.710Z,6.90
2022-10-30T08:06:13.519Z,7.03
2022-10-30T08:09:02.171Z,8.73
2022-10-30T08:11:50.494Z,7.47
2022-10-30T08:14:40.616Z,7.45
2022-10-30T08:17:29.508Z,8.23
2022-10-30T08:20:20.707Z,7.95
2022-10-30T08:23:10.834Z,7.97
2022-10-30T08:26:01.447Z,7.40
2022-10-30T08:28:49.611Z,8.45
2022-10-30T08:31:40.291Z,8.25
2022-10-30T08:34:31.927Z,7.22
2022-10-30T08:37:20.072Z,7.32
2022-10-30T08:40:10.699Z,6.32
2022-10-30T08:43:00.393Z,7.10
2022-10-30T08:45:49.587Z,7.07
2022-10-30T08:48:55.240Z,7.82
2022-10-30T08:51:44.741Z,7.25
2022-10-30T08:54:41.128Z,7.00
2022-10-30T08:57:32.588Z,7.80
2022-10-30T09:00:20.554Z,6.57
2022-10-30T09:03:08.770Z,8.35
2022-10-30T09:06:03.948Z,7.07
2022-10-30T09:11:42.974Z,7.50
2022-10-30T09:14:31.401Z,7.10
2022-10-30T09:17:22.773Z,7.50
2022-10-30T09:20:12.676Z,6.10
2022-10-30T09:23:10.909Z,8.00
2022-10-30T09:26:00.283Z,8.02
2022-10-30T09:28:48.404Z,8.07
2022-10-30T09:31:38.615Z,8.82
2022-10-30T09:34:31.077Z,8.75
2022-10-30T09:37:23.666Z,8.45
2022-10-30T09:40:33.803Z,7.40
2022-10-30T09:43:39.593Z,8.18
2022-10-30T09:46:59.093Z,7.05
2022-10-30T09:50:06.194Z,7.95
2022-10-30T09:53:08.675Z,8.52
2022-10-30T09:56:15.733Z,8.05
2022-10-30T09:59:22.006Z,7.65
2022-10-30T10:02:37.887Z,10.00
2022-10-30T10:05:34.523Z,12.77
2022-10-30T10:08:36.243Z,12.30
2022-10-30T10:11:33.020Z,9.80
2022-10-30T10:14:36.319Z,9.93
2022-10-30T10:17:33.523Z,9.25
2022-10-30T10:20:41.628Z,10.48
2022-10-30T10:23:40.790Z,8.48
2022-10-30T10:26:48.469Z,6.50
2022-10-30T10:29:53.952Z,6.97
2022-10-30T10:33:06.198Z,7.32
2022-10-30T10:36:24.413Z,8.45
2022-10-30T10:39:35.307Z,12.30
2022-10-30T10:42:41.736Z,7.25
2022-10-30T10:45:45.932Z,11.80
2022-10-30T10:49:00.620Z,17.50
2022-10-30T10:52:00.614Z,13.13
2022-10-30T10:54:55.065Z,11.32
2022-10-30T10:57:46.710Z,12.07
2022-10-30T11:00:40.177Z,12.10
2022-10-30T11:03:46.683Z,23.38
2022-10-30T11:06:44.777Z,12.60
2022-10-30T11:09:33.203Z,15.82
2022-10-30T11:12:30.951Z,9.40
2022-10-30T11:15:52.380Z,8.60
2022-10-30T11:18:42.268Z,11.95
2022-10-30T11:21:41.892Z,8.57
2022-10-30T11:24:33.698Z,8.45
2022-10-30T11:27:35.863Z,7.97
2022-10-30T11:30:30.868Z,17.80
2022-10-30T11:33:31.118Z,9.60
2022-10-30T11:36:24.460Z,9.15
2022-10-30T11:39:20.677Z,9.57
2022-10-30T11:42:15.975Z,11.10
2022-10-30T11:45:09.415Z,11.57
2022-10-30T11:48:06.988Z,8.88
2022-10-30T11:51:06.328Z,9.23
2022-10-30T11:53:54.979Z,10.90
2022-10-30T11:56:51.656Z,10.85
2022-10-30T11:59:41.838Z,9.85
2022-10-30T12:02:43.803Z,6.88
2022-10-30T12:18:59.109Z,7.18
2022-10-30T12:21:50.560Z,11.57
2022-10-30T12:24:44.873Z,7.43
2022-10-30T12:27:38.401Z,6.00
2022-10-30T12:30:27.442Z,12.65
2022-10-30T12:33:23.513Z,21.55
2022-10-30T12:36:18.680Z,20.85
2022-10-30T12:39:14.294Z,23.58
2022-10-30T12:42:08.380Z,18.60
2022-10-30T12:45:14.036Z,12.02
2022-10-30T12:48:16.825Z,11.80
2022-10-30T12:51:22.916Z,10.82
2022-10-30T12:54:26.680Z,16.15
2022-10-30T12:57:20.002Z,6.22
2022-10-30T13:00:15.623Z,16.70
2022-10-30T13:03:27.260Z,13.98
2022-10-30T13:06:22.059Z,9.88
2022-10-30T13:09:22.526Z,8.82
2022-10-30T13:12:17.323Z,15.55
2022-10-30T13:15:14.671Z,8.50
2022-10-30T13:18:17.713Z,14.60
2022-10-30T13:21:25.207Z,10.27
2022-10-30T13:24:19.127Z,11.80
2022-10-30T13:27:16.210Z,18.27
2022-10-30T13:30:07.763Z,9.20
2022-10-30T13:33:13.619Z,11.38
2022-10-30T13:36:09.938Z,7.78
2022-10-30T13:39:10.204Z,13.07
2022-10-30T13:42:19.542Z,14.02
2022-10-30T13:45:37.160Z,9.98
2022-10-30T13:48:48.538Z,19.42
2022-10-30T13:51:43.464Z,15.80
2022-10-30T13:54:38.372Z,13.95
2022-10-30T13:57:35.686Z,15.27
2022-10-30T14:00:31.306Z,14.10
2022-10-30T14:03:37.965Z,14.40
2022-10-30T14:06:37.600Z,15.15
2022-10-30T14:09:43.316Z,15.90
2022-10-30T14:12:52.158Z,10.10
2022-10-30T14:15:45.798Z,7.38
2022-10-30T14:18:47.024Z,7.35
2022-10-30T14:22:02.761Z,7.22
2022-10-30T14:24:51.492Z,6.70
2022-10-30T14:27:39.380Z,7.05
2022-10-30T14:30:29.243Z,7.55
2022-10-30T14:33:43.813Z,7.53
2022-10-30T14:36:50.653Z,9.13
2022-10-30T14:39:41.729Z,8.70
2022-10-30T14:42:45.169Z,6.43
2022-10-30T14:45:43.688Z,4.93
2022-10-30T14:48:50.879Z,5.13
2022-10-30T14:51:46.681Z,4.63
2022-10-30T14:54:46.564Z,6.03
2022-10-30T14:57:54.352Z,5.60
2022-10-30T15:00:43.980Z,4.93
2022-10-30T15:03:54.595Z,5.57
2022-10-30T15:07:17.067Z,7.53
2022-10-30T15:10:20.150Z,14.55
2022-10-30T15:13:19.806Z,19.70
2022-10-30T15:16:13.755Z,14.38
2022-10-30T15:19:07.247Z,10.88
2022-10-30T15:21:57.668Z,13.85
2022-10-30T15:24:46.945Z,17.10
2022-10-30T15:27:35.740Z,14.07
2022-10-30T15:30:28.125Z,11.68
2022-10-30T15:33:23.382Z,9.57
2022-10-30T15:36:19.570Z,6.70
2022-10-30T15:39:12.176Z,5.47
2022-10-30T15:42:04.162Z,5.43
2022-10-30T15:44:53.046Z,7.18
2022-10-30T15:47:48.530Z,7.10
2022-10-30T15:50:41.502Z,6.63
2022-10-30T15:53:39.619Z,5.80
2022-10-30T15:56:32.717Z,6.13
2022-10-30T15:59:26.016Z,5.68
2022-10-30T16:02:23.781Z,5.38
2022-10-30T16:05:23.870Z,5.18
2022-10-30T16:08:20.365Z,6.28
2022-10-30T16:11:07.956Z,6.75
2022-10-30T16:13:56.498Z,8.13
2022-10-30T16:16:46.019Z,9.65
2022-10-30T16:19:46.835Z,12.55
2022-10-30T16:22:40.615Z,21.52
2022-10-30T16:25:28.684Z,26.08
2022-10-30T16:28:30.108Z,28.27
2022-10-30T16:31:20.186Z,22.92
2022-10-30T16:34:16.997Z,22.38
2022-10-30T16:37:06.478Z,23.23
2022-10-30T16:39:57.562Z,13.20
2022-10-30T16:42:54.831Z,14.32
2022-10-30T16:45:50.675Z,15.68
2022-10-30T16:48:38.348Z,15.90
2022-10-30T16:51:25.966Z,14.85
2022-10-30T16:54:27.906Z,12.43
2022-10-30T16:57:26.636Z,11.05
2022-10-30T17:00:25.852Z,10.57
2022-10-30T17:03:15.123Z,8.90
2022-10-30T17:06:06.555Z,8.65
2022-10-30T17:08:59.651Z,6.65
2022-10-30T17:12:05.121Z,7.13
2022-10-30T17:14:56.708Z,7.57
2022-10-30T17:17:45.142Z,9.82
2022-10-30T17:20:32.497Z,8.20
2022-10-30T17:23:20.994Z,8.32
2022-10-30T17:26:13.709Z,10.00
2022-10-30T17:29:01.271Z,11.30
2022-10-30T17:31:51.114Z,10.77
2022-10-30T17:34:39.072Z,9.25
2022-10-30T17:37:26.753Z,7.88
2022-10-30T17:40:15.718Z,5.57
2022-10-30T17:43:03.435Z,6.35
2022-10-30T17:45:51.404Z,5.80
2022-10-30T17:48:41.599Z,5.65
2022-10-30T17:51:29.270Z,5.70
2022-10-30T17:54:16.887Z,5.55
2022-10-30T17:57:04.970Z,6.35
2022-10-30T17:59:52.914Z,7.05
2022-10-30T18:02:41.661Z,7.45
2022-10-30T18:05:34.345Z,8.45
2022-10-30T18:08:22.945Z,9.13
2022-10-30T18:11:12.893Z,9.00
2022-10-30T18:14:02.019Z,9.63
2022-10-30T18:16:54.534Z,10.23
2022-10-30T18:19:43.299Z,10.75
2022-10-30T18:22:32.256Z,10.27
2022-10-30T18:25:25.930Z,10.38
2022-10-30T18:28:13.770Z,9.23
2022-10-30T18:31:01.901Z,9.00
2022-10-30T18:33:49.875Z,8.38
2022-10-30T18:36:37.716Z,8.63
2022-10-30T18:39:26.433Z,8.57
2022-10-30T18:42:14.146Z,8.10
2022-10-30T18:45:01.892Z,9.20
2022-10-30T18:47:50.754Z,9.48
2022-10-30T18:50:39.548Z,9.38
2022-10-30T18:53:31.360Z,8.30
2022-10-30T18:56:26.674Z,8.43
2022-10-30T18:59:14.130Z,8.68
2022-10-30T19:02:01.955Z,8.82
2022-10-30T19:04:49.744Z,10.27
2022-10-30T19:07:37.196Z,10.27
2022-10-30T19:10:31.502Z,10.07
2022-10-30T19:13:22.921Z,9.70
2022-10-30T19:16:15.162Z,9.52
2022-10-30T19:19:02.695Z,9.45
2022-10-30T19:21:50.577Z,8.88
2022-10-30T19:24:38.375Z,8.73
2022-10-30T19:27:26.121Z,9.43
2022-10-30T19:30:16.118Z,8.70
2022-10-30T19:33:03.857Z,9.18
2022-10-30T19:35:55.943Z,8.68
2022-10-30T19:38:43.456Z,9.00
2022-10-30T19:44:23.748Z,8.50
2022-10-30T19:47:12.705Z,8.63
2022-10-30T19:50:00.491Z,8.85
2022-10-30T19:52:48.887Z,9.70
2022-10-30T19:55:40.500Z,9.40
2022-10-30T19:58:28.283Z,8.85
2022-10-30T20:01:16.342Z,9.55
2022-10-30T20:04:05.958Z,8.30
2022-10-30T20:06:56.209Z,8.07
2022-10-30T20:09:46.165Z,7.75
2022-10-30T20:12:33.695Z,7.65
2022-10-30T20:15:23.500Z,7.72
2022-10-30T20:18:16.264Z,7.40
2022-10-30T20:23:55.863Z,7.78
2022-10-30T20:26:43.337Z,7.57
2022-10-30T20:29:31.250Z,8.70
2022-10-30T20:32:18.718Z,9.68
2022-10-30T20:35:10.365Z,9.23
2022-10-30T20:38:03.169Z,9.68
2022-10-30T20:40:53.666Z,9.23
2022-10-30T20:43:41.131Z,9.45
2022-10-30T20:46:32.843Z,8.57
2022-10-30T20:49:21.134Z,9.13
2022-10-30T20:52:08.953Z,9.40
2022-10-30T20:54:57.797Z,8.90
2022-10-30T20:57:45.208Z,9.20
2022-10-30T21:00:32.735Z,9.27
2022-10-30T21:03:20.439Z,9.32
2022-10-30T21:06:09.750Z,9.02
2022-10-30T21:08:57.610Z,9.02
2022-10-30T21:11:51.837Z,8.70
2022-10-30T21:14:39.641Z,8.57
2022-10-30T21:17:27.261Z,8.00
2022-10-30T21:20:15.244Z,8.13
2022-10-30T21:23:04.858Z,7.93
2022-10-30T21:26:05.450Z,7.70
2022-10-30T21:28:54.438Z,8.02
2022-10-30T21:31:42.583Z,8.48
2022-10-30T21:34:32.338Z,7.45
2022-10-30T21:37:20.000Z,8.13
2022-10-30T21:40:09.686Z,7.93
2022-10-30T21:42:59.903Z,8.35
2022-10-30T21:45:52.269Z,8.38
2022-10-30T21:48:40.592Z,8.30
2022-10-30T21:51:30.444Z,8.10
2022-10-30T21:54:19.596Z,8.32
2022-10-30T21:57:07.375Z,7.95
2022-10-30T21:59:56.075Z,8.70
2022-10-30T22:02:47.956Z,8.77
2022-10-30T22:05:35.828Z,8.93
2022-10-30T22:08:23.358Z,8.55
2022-10-30T22:11:12.417Z,8.75
2022-10-30T22:14:03.076Z,9.13
2022-10-30T22:16:50.814Z,9.07
2022-10-30T22:19:39.707Z,9.57
2022-10-30T22:22:27.212Z,9.00
2022-10-30T22:25:16.918Z,8.55
2022-10-30T22:28:05.572Z,8.70
2022-10-30T22:30:53.665Z,8.68
2022-10-30T22:33:46.138Z,9.38
2022-10-30T22:36:35.339Z,8.82
2022-10-30T22:39:23.435Z,9.13
2022-10-30T22:42:11.472Z,9.00
2022-10-30T22:44:58.902Z,8.45
2022-10-30T22:47:46.475Z,8.25
2022-10-30T22:50:34.032Z,8.88
2022-10-30T22:53:23.334Z,8.45
2022-10-30T22:56:17.806Z,9.10
2022-10-30T22:59:09.705Z,8.18
2022-10-30T23:01:57.325Z,7.95
2022-10-30T23:04:45.148Z,7.43
2022-10-30T23:07:32.684Z,7.15
2022-10-30T23:10:21.597Z,7.63
2022-10-30T23:13:10.772Z,7.63
2022-10-30T23:16:01.828Z,7.45
2022-10-30T23:18:50.829Z,7.70
2022-10-30T23:21:38.445Z,7.03
2022-10-30T23:24:27.116Z,7.78
2022-10-30T23:27:15.919Z,7.22
2022-10-30T23:30:05.830Z,8.40
2022-10-30T23:32:54.686Z,7.78
2022-10-30T23:35:42.381Z,8.02
2022-10-30T23:38:30.221Z,7.07
2022-10-30T23:41:17.765Z,6.40
2022-10-30T23:44:09.268Z,7.85
2022-10-30T23:46:56.577Z,7.13
2022-10-30T23:49:44.247Z,7.35
2022-10-30T23:52:31.848Z,6.50
2022-10-30T23:55:22.464Z,7.03
2022-10-30T23:58:09.835Z,7.63
